sensor_id;sensor_type;location;lat;lon;timestamp;P1;durP1;ratioP1;P2;durP2;ratioP2
21448;SDS011;10885;52.830;13.788;2022-12-11T06:16:07;23.92;;;13.63;;
21448;SDS011;10885;52.830;13.788;2022-12-11T06:21:21;27.42;;;12.38;;
21448;SDS011;10885;52.830;13.788;2022-12-11T06:26:33;25.75;;;13.82;;
21448;SDS011;10885;52.830;13.788;2022-12-11T06:31:35;27.73;;;13.02;;
21448;SDS011;10885;52.830;13.788;2022-12-11T06:36:37;33.00;;;14.77;;
21448;SDS011;10885;52.830;13.788;2022-12-11T06:41:40;30.77;;;14.00;;
21448;SDS011;10885;52.830;13.788;2022-12-11T06:46:43;29.55;;;13.80;;
21448;SDS011;10885;52.830;13.788;2022-12-11T06:51:45;25.65;;;13.93;;
21448;SDS011;10885;52.830;13.788;2022-12-11T06:56:47;31.30;;;14.93;;
21448;SDS011;10885;52.830;13.788;2022-12-11T07:01:49;27.48;;;13.40;;
21448;SDS011;10885;52.830;13.788;2022-12-11T07:06:52;27.75;;;14.13;;
21448;SDS011;10885;52.830;13.788;2022-12-11T07:11:54;23.30;;;12.32;;
21448;SDS011;10885;52.830;13.788;2022-12-11T07:16:57;22.58;;;11.82;;
21448;SDS011;10885;52.830;13.788;2022-12-11T07:21:59;28.05;;;12.18;;
21448;SDS011;10885;52.830;13.788;2022-12-11T07:27:02;30.23;;;13.50;;
21448;SDS011;10885;52.830;13.788;2022-12-11T07:32:05;22.08;;;11.48;;
21448;SDS011;10885;52.830;13.788;2022-12-11T07:37:07;23.50;;;12.65;;
21448;SDS011;10885;52.830;13.788;2022-12-11T07:42:09;28.00;;;12.88;;
21448;SDS011;10885;52.830;13.788;2022-12-11T07:47:12;23.10;;;12.40;;
21448;SDS011;10885;52.830;13.788;2022-12-11T07:52:14;24.58;;;12.82;;
21448;SDS011;10885;52.830;13.788;2022-12-11T07:57:16;25.35;;;12.57;;
21448;SDS011;10885;52.830;13.788;2022-12-11T08:02:19;23.30;;;12.48;;
21448;SDS011;10885;52.830;13.788;2022-12-11T08:07:21;24.10;;;11.10;;
21448;SDS011;10885;52.830;13.788;2022-12-11T08:12:23;29.83;;;13.77;;
21448;SDS011;10885;52.830;13.788;2022-12-11T08:17:26;22.38;;;12.05;;
21448;SDS011;10885;52.830;13.788;2022-12-11T08:22:34;24.98;;;12.13;;
21448;SDS011;10885;52.830;13.788;2022-12-11T08:27:37;31.45;;;12.68;;
21448;SDS011;10885;52.830;13.788;2022-12-11T08:32:39;25.95;;;12.48;;
21448;SDS011;10885;52.830;13.788;2022-12-11T08:37:41;24.67;;;12.18;;
21448;SDS011;10885;52.830;13.788;2022-12-11T08:42:44;25.67;;;12.82;;
21448;SDS011;10885;52.830;13.788;2022-12-11T08:47:46;24.52;;;11.48;;
21448;SDS011;10885;52.830;13.788;2022-12-11T08:52:48;26.50;;;12.48;;
21448;SDS011;10885;52.830;13.788;2022-12-11T08:57:51;27.65;;;13.48;;
21448;SDS011;10885;52.830;13.788;2022-12-11T09:02:53;24.95;;;12.80;;
21448;SDS011;10885;52.830;13.788;2022-12-11T09:07:56;25.58;;;13.38;;
21448;SDS011;10885;52.830;13.788;2022-12-11T09:12:59;27.30;;;13.82;;
21448;SDS011;10885;52.830;13.788;2022-12-11T09:18:01;25.33;;;13.38;;
21448;SDS011;10885;52.830;13.788;2022-12-11T09:23:04;26.88;;;13.70;;
21448;SDS011;10885;52.830;13.788;2022-12-11T09:28:06;20.60;;;11.80;;
21448;SDS011;10885;52.830;13.788;2022-12-11T09:33:08;20.38;;;10.82;;
21448;SDS011;10885;52.830;13.788;2022-12-11T09:38:11;20.02;;;10.77;;
21448;SDS011;10885;52.830;13.788;2022-12-11T09:43:18;19.67;;;10.32;;
21448;SDS011;10885;52.830;13.788;2022-12-11T09:48:31;22.98;;;10.88;;
21448;SDS011;10885;52.830;13.788;2022-12-11T09:53:35;27.55;;;11.88;;
21448;SDS011;10885;52.830;13.788;2022-12-11T10:04:01;25.65;;;12.15;;
21448;SDS011;10885;52.830;13.788;2022-12-11T10:09:35;25.10;;;12.93;;
21448;SDS011;10885;52.830;13.788;2022-12-11T10:20:30;17.55;;;10.18;;
21448;SDS011;10885;52.830;13.788;2022-12-11T10:25:41;20.02;;;10.65;;
21448;SDS011;10885;52.830;13.788;2022-12-11T10:36:03;18.48;;;10.20;;
21448;SDS011;10885;52.830;13.788;2022-12-11T10:41:13;20.35;;;10.13;;
21448;SDS011;10885;52.830;13.788;2022-12-11T10:46:20;19.05;;;10.23;;
21448;SDS011;10885;52.830;13.788;2022-12-11T10:56:32;19.55;;;11.25;;
21448;SDS011;10885;52.830;13.788;2022-12-11T11:01:36;17.00;;;10.45;;
21448;SDS011;10885;52.830;13.788;2022-12-11T11:06:39;19.08;;;10.45;;
21448;SDS011;10885;52.830;13.788;2022-12-11T11:11:48;20.75;;;10.23;;
21448;SDS011;10885;52.830;13.788;2022-12-11T11:16:51;16.13;;;8.87;;
21448;SDS011;10885;52.830;13.788;2022-12-11T11:22:01;17.08;;;10.63;;
21448;SDS011;10885;52.830;13.788;2022-12-11T11:32:44;19.70;;;10.30;;
21448;SDS011;10885;52.830;13.788;2022-12-11T11:38:04;16.58;;;9.73;;
21448;SDS011;10885;52.830;13.788;2022-12-11T11:43:27;17.75;;;9.75;;
21448;SDS011;10885;52.830;13.788;2022-12-11T11:48:43;19.88;;;9.35;;
21448;SDS011;10885;52.830;13.788;2022-12-11T11:53:52;18.02;;;9.50;;
21448;SDS011;10885;52.830;13.788;2022-12-11T12:09:32;24.25;;;10.43;;
21448;SDS011;10885;52.830;13.788;2022-12-11T12:30:29;19.52;;;9.93;;
21448;SDS011;10885;52.830;13.788;2022-12-11T12:35:43;18.48;;;9.70;;
21448;SDS011;10885;52.830;13.788;2022-12-11T12:51:52;17.50;;;9.40;;
21448;SDS011;10885;52.830;13.788;2022-12-11T12:56:55;16.83;;;8.38;;
21448;SDS011;10885;52.830;13.788;2022-12-11T13:02:00;16.27;;;9.27;;
21448;SDS011;10885;52.830;13.788;2022-12-11T13:07:12;17.20;;;8.57;;
21448;SDS011;10885;52.830;13.788;2022-12-11T13:12:20;22.02;;;9.45;;
21448;SDS011;10885;52.830;13.788;2022-12-11T13:17:35;16.30;;;8.13;;
21448;SDS011;10885;52.830;13.788;2022-12-11T13:23:28;16.90;;;8.70;;
21448;SDS011;10885;52.830;13.788;2022-12-11T13:28:19;14.82;;;8.25;;
21448;SDS011;10885;52.830;13.788;2022-12-11T13:33:24;16.77;;;8.60;;
21448;SDS011;10885;52.830;13.788;2022-12-11T13:38:27;16.15;;;8.48;;
21448;SDS011;10885;52.830;13.788;2022-12-11T13:43:29;17.15;;;8.80;;
21448;SDS011;10885;52.830;13.788;2022-12-11T13:48:38;14.93;;;8.70;;
21448;SDS011;10885;52.830;13.788;2022-12-11T13:53:46;14.77;;;8.23;;
21448;SDS011;10885;52.830;13.788;2022-12-11T13:58:49;16.02;;;9.57;;
21448;SDS011;10885;52.830;13.788;2022-12-11T14:04:01;14.00;;;8.48;;
21448;SDS011;10885;52.830;13.788;2022-12-11T14:09:13;14.10;;;8.75;;
21448;SDS011;10885;52.830;13.788;2022-12-11T14:19:27;15.82;;;8.77;;
21448;SDS011;10885;52.830;13.788;2022-12-11T14:24:30;15.65;;;8.70;;
21448;SDS011;10885;52.830;13.788;2022-12-11T14:29:33;17.25;;;9.48;;
21448;SDS011;10885;52.830;13.788;2022-12-11T14:34:37;16.30;;;9.60;;
21448;SDS011;10885;52.830;13.788;2022-12-11T14:39:53;18.63;;;9.70;;
21448;SDS011;10885;52.830;13.788;2022-12-11T14:45:04;19.50;;;9.35;;
21448;SDS011;10885;52.830;13.788;2022-12-11T14:50:44;16.60;;;9.68;;
21448;SDS011;10885;52.830;13.788;2022-12-11T14:56:02;19.25;;;10.20;;
21448;SDS011;10885;52.830;13.788;2022-12-11T15:01:27;20.00;;;10.18;;
21448;SDS011;10885;52.830;13.788;2022-12-11T15:06:33;18.75;;;10.25;;
21448;SDS011;10885;52.830;13.788;2022-12-11T15:11:43;19.15;;;9.85;;
21448;SDS011;10885;52.830;13.788;2022-12-11T15:16:46;17.95;;;10.73;;
21448;SDS011;10885;52.830;13.788;2022-12-11T15:21:50;19.65;;;10.10;;
21448;SDS011;10885;52.830;13.788;2022-12-11T15:26:55;17.08;;;9.95;;
21448;SDS011;10885;52.830;13.788;2022-12-11T15:32:00;18.40;;;10.35;;
21448;SDS011;10885;52.830;13.788;2022-12-11T15:37:03;25.73;;;11.25;;
21448;SDS011;10885;52.830;13.788;2022-12-11T15:47:36;26.67;;;12.43;;
21448;SDS011;10885;52.830;13.788;2022-12-11T15:52:38;22.48;;;12.15;;
21448;SDS011;10885;52.830;13.788;2022-12-11T15:57:44;16.67;;;10.15;;
21448;SDS011;10885;52.830;13.788;2022-12-11T16:02:49;24.52;;;11.90;;
21448;SDS011;10885;52.830;13.788;2022-12-11T16:07:52;41.90;;;18.88;;
21448;SDS011;10885;52.830;13.788;2022-12-11T16:12:57;25.13;;;11.73;;
21448;SDS011;10885;52.830;13.788;2022-12-11T16:18:01;18.58;;;9.55;;
21448;SDS011;10885;52.830;13.788;2022-12-11T16:23:06;21.88;;;9.98;;
21448;SDS011;10885;52.830;13.788;2022-12-11T16:28:10;21.70;;;10.88;;
21448;SDS011;10885;52.830;13.788;2022-12-11T16:33:15;18.17;;;10.68;;
21448;SDS011;10885;52.830;13.788;2022-12-11T16:38:17;16.95;;;9.60;;
21448;SDS011;10885;52.830;13.788;2022-12-11T16:43:21;17.83;;;9.73;;
21448;SDS011;10885;52.830;13.788;2022-12-11T16:48:23;18.10;;;10.07;;
21448;SDS011;10885;52.830;13.788;2022-12-11T16:53:26;20.23;;;11.23;;
21448;SDS011;10885;52.830;13.788;2022-12-11T16:58:29;21.23;;;10.57;;
21448;SDS011;10885;52.830;13.788;2022-12-11T17:03:31;20.60;;;10.32;;
21448;SDS011;10885;52.830;13.788;2022-12-11T17:08:33;21.25;;;10.63;;
21448;SDS011;10885;52.830;13.788;2022-12-11T17:13:36;21.30;;;10.27;;
21448;SDS011;10885;52.830;13.788;2022-12-11T17:18:38;21.55;;;10.52;;
21448;SDS011;10885;52.830;13.788;2022-12-11T17:23:41;19.67;;;10.80;;
21448;SDS011;10885;52.830;13.788;2022-12-11T17:28:44;16.98;;;10.60;;
21448;SDS011;10885;52.830;13.788;2022-12-11T17:33:46;21.35;;;12.20;;
21448;SDS011;10885;52.830;13.788;2022-12-11T17:38:49;18.58;;;10.52;;
21448;SDS011;10885;52.830;13.788;2022-12-11T17:43:52;19.42;;;9.73;;
21448;SDS011;10885;52.830;13.788;2022-12-11T17:48:55;18.55;;;10.23;;
21448;SDS011;10885;52.830;13.788;2022-12-11T17:54:00;21.02;;;10.18;;
21448;SDS011;10885;52.830;13.788;2022-12-11T17:59:03;17.73;;;9.07;;
21448;SDS011;10885;52.830;13.788;2022-12-11T18:04:05;15.55;;;9.18;;
21448;SDS011;10885;52.830;13.788;2022-12-11T18:09:09;19.60;;;10.85;;
21448;SDS011;10885;52.830;13.788;2022-12-11T18:14:12;20.52;;;10.52;;
21448;SDS011;10885;52.830;13.788;2022-12-11T18:19:18;16.95;;;10.35;;
21448;SDS011;10885;52.830;13.788;2022-12-11T18:24:21;19.05;;;10.50;;
21448;SDS011;10885;52.830;13.788;2022-12-11T18:29:24;21.40;;;10.65;;
21448;SDS011;10885;52.830;13.788;2022-12-11T18:34:26;17.90;;;11.00;;
21448;SDS011;10885;52.830;13.788;2022-12-11T18:39:29;20.48;;;11.27;;
21448;SDS011;10885;52.830;13.788;2022-12-11T18:44:31;19.92;;;10.45;;
21448;SDS011;10885;52.830;13.788;2022-12-11T18:49:33;22.35;;;11.80;;
21448;SDS011;10885;52.830;13.788;2022-12-11T18:54:37;19.38;;;10.88;;
21448;SDS011;10885;52.830;13.788;2022-12-11T18:59:39;20.40;;;11.00;;
21448;SDS011;10885;52.830;13.788;2022-12-11T19:04:42;24.77;;;11.77;;
21448;SDS011;10885;52.830;13.788;2022-12-11T19:09:44;19.35;;;11.50;;
21448;SDS011;10885;52.830;13.788;2022-12-11T19:14:49;20.27;;;11.32;;
21448;SDS011;10885;52.830;13.788;2022-12-11T19:19:51;19.85;;;10.60;;
21448;SDS011;10885;52.830;13.788;2022-12-11T19:24:54;21.92;;;11.43;;
21448;SDS011;10885;52.830;13.788;2022-12-11T19:29:56;21.15;;;11.52;;
21448;SDS011;10885;52.830;13.788;2022-12-11T19:35:00;19.48;;;10.80;;
21448;SDS011;10885;52.830;13.788;2022-12-11T19:40:02;21.80;;;10.70;;
21448;SDS011;10885;52.830;13.788;2022-12-11T19:45:10;19.73;;;11.20;;
21448;SDS011;10885;52.830;13.788;2022-12-11T19:50:13;21.85;;;10.80;;
21448;SDS011;10885;52.830;13.788;2022-12-11T19:55:16;23.63;;;12.23;;
21448;SDS011;10885;52.830;13.788;2022-12-11T20:00:20;25.08;;;11.95;;
21448;SDS011;10885;52.830;13.788;2022-12-11T20:05:22;20.23;;;11.45;;
21448;SDS011;10885;52.830;13.788;2022-12-11T20:10:25;21.80;;;11.52;;
21448;SDS011;10885;52.830;13.788;2022-12-11T20:15:28;22.25;;;11.23;;
21448;SDS011;10885;52.830;13.788;2022-12-11T20:20:32;23.52;;;11.55;;
21448;SDS011;10885;52.830;13.788;2022-12-11T20:25:36;22.67;;;11.35;;
21448;SDS011;10885;52.830;13.788;2022-12-11T20:30:41;22.92;;;12.25;;
21448;SDS011;10885;52.830;13.788;2022-12-11T20:35:43;23.73;;;12.57;;
21448;SDS011;10885;52.830;13.788;2022-12-11T20:40:46;20.40;;;12.13;;
21448;SDS011;10885;52.830;13.788;2022-12-11T20:45:48;25.42;;;12.82;;
21448;SDS011;10885;52.830;13.788;2022-12-11T20:50:51;25.02;;;13.18;;
21448;SDS011;10885;52.830;13.788;2022-12-11T20:55:53;26.77;;;12.57;;
21448;SDS011;10885;52.830;13.788;2022-12-11T21:00:56;26.77;;;13.52;;
21448;SDS011;10885;52.830;13.788;2022-12-11T21:05:59;24.48;;;12.60;;
21448;SDS011;10885;52.830;13.788;2022-12-11T21:11:04;28.35;;;13.85;;
21448;SDS011;10885;52.830;13.788;2022-12-11T21:16:07;25.60;;;13.48;;
21448;SDS011;10885;52.830;13.788;2022-12-11T21:21:10;26.85;;;13.73;;
21448;SDS011;10885;52.830;13.788;2022-12-11T21:26:13;24.42;;;13.55;;
21448;SDS011;10885;52.830;13.788;2022-12-11T21:31:16;27.20;;;13.05;;
21448;SDS011;10885;52.830;13.788;2022-12-11T21:36:19;28.58;;;14.55;;
21448;SDS011;10885;52.830;13.788;2022-12-11T21:41:24;28.02;;;14.10;;
21448;SDS011;10885;52.830;13.788;2022-12-11T21:46:27;28.10;;;14.63;;
21448;SDS011;10885;52.830;13.788;2022-12-11T21:51:31;31.67;;;14.65;;
21448;SDS011;10885;52.830;13.788;2022-12-11T21:56:43;26.67;;;13.65;;
21448;SDS011;10885;52.830;13.788;2022-12-11T22:01:47;31.42;;;14.65;;
21448;SDS011;10885;52.830;13.788;2022-12-11T22:06:49;27.88;;;13.60;;
21448;SDS011;10885;52.830;13.788;2022-12-11T22:11:51;27.77;;;14.07;;
21448;SDS011;10885;52.830;13.788;2022-12-11T22:16:59;25.00;;;13.68;;
21448;SDS011;10885;52.830;13.788;2022-12-11T22:22:01;28.88;;;14.50;;
21448;SDS011;10885;52.830;13.788;2022-12-11T22:27:04;29.17;;;14.63;;
21448;SDS011;10885;52.830;13.788;2022-12-11T22:32:07;29.30;;;14.82;;
21448;SDS011;10885;52.830;13.788;2022-12-11T22:37:09;32.25;;;15.07;;
21448;SDS011;10885;52.830;13.788;2022-12-11T22:42:11;31.60;;;15.32;;
